Time;durP1;ratioP1;P1;durP2;ratioP2;P2;SDS_P1;SDS_P2;PMS_P1;PMS_P2;Temp;Humidity;BMP_temperature;BMP_pressure;BME280_temperature;BME280_humidity;BME280_pressure;Samples;Min_cycle;Max_cycle;Signal;HPM_P1;HPM_P2
2023/03/16 00:01:42;;;;;;;21.40;14.27;;;;;;;8.93;61.55;98955.28;5004686;28;20079;-69
2023/03/16 00:04:08;;;;;;;25.37;15.03;;;;;;;9.09;61.12;98955.28;5037710;28;20102;-69
2023/03/16 00:06:35;;;;;;;24.73;15.50;;;;;;;9.18;60.88;98948.97;5021274;28;20040;-69
2023/03/16 00:09:03;;;;;;;27.70;15.37;;;;;;;9.33;60.60;98952.59;5004138;28;20465;-69
2023/03/16 00:11:29;;;;;;;27.30;15.93;;;;;;;9.24;60.92;98943.00;5037424;28;20109;-69
2023/03/16 00:13:54;;;;;;;21.03;14.70;;;;;;;9.30;59.87;98952.94;5037294;28;20052;-69
2023/03/16 00:16:21;;;;;;;22.57;15.00;;;;;;;9.20;60.03;98946.16;5020866;28;20064;-69
2023/03/16 00:18:46;;;;;;;22.27;13.93;;;;;;;9.25;60.03;98947.34;5021021;28;20040;-69
2023/03/16 00:21:13;;;;;;;21.50;14.10;;;;;;;9.25;60.27;98949.16;5004345;28;20045;-68
2023/03/16 00:23:39;;;;;;;22.03;13.77;;;;;;;9.06;60.31;98937.06;5033821;28;20169;-69
2023/03/16 00:26:08;;;;;;;20.73;13.00;;;;;;;9.42;61.12;98956.94;5036578;28;20493;-69
2023/03/16 00:28:35;;;;;;;22.80;14.23;;;;;;;9.05;61.13;98940.72;5037346;28;20040;-69
2023/03/16 00:31:05;;;;;;;20.43;13.63;;;;;;;9.13;61.35;98947.84;5020530;28;20051;-68
2023/03/16 00:33:33;;;;;;;18.33;12.97;;;;;;;8.89;61.07;98958.41;5037235;28;20054;-68
2023/03/16 00:36:03;;;;;;;20.33;13.17;;;;;;;9.28;61.39;98970.00;5004052;28;20506;-69
2023/03/16 00:38:33;;;;;;;20.23;13.98;;;;;;;9.35;61.49;98961.22;5017232;28;20041;-68
2023/03/16 00:41:02;;;;;;;21.17;13.07;;;;;;;9.47;59.70;98954.59;5052497;28;20484;-68
2023/03/16 00:43:30;;;;;;;22.03;14.10;;;;;;;9.57;59.55;98957.06;5036847;28;20113;-69
2023/03/16 00:46:05;;;;;;;20.30;13.90;;;;;;;9.72;59.89;98966.81;5020215;28;20492;-69
2023/03/16 00:48:35;;;;;;;24.77;14.17;;;;;;;9.72;58.97;98961.50;5053424;28;20040;-69
2023/03/16 00:51:05;;;;;;;19.37;12.70;;;;;;;9.61;59.59;98961.88;5003979;28;20503;-68
2023/03/16 00:53:35;;;;;;;23.20;12.83;;;;;;;9.75;59.36;98968.28;5019984;28;20067;-68
2023/03/16 00:56:03;;;;;;;21.20;13.20;;;;;;;9.39;59.47;98956.44;5036738;28;20048;-68
2023/03/16 00:58:35;;;;;;;20.83;13.43;;;;;;;9.50;59.95;98959.56;5036450;28;20048;-69
2023/03/16 01:01:07;;;;;;;20.83;12.63;;;;;;;9.45;59.67;98956.59;5053356;28;20055;-69
2023/03/16 01:03:33;;;;;;;22.80;12.97;;;;;;;9.21;59.56;98951.28;5036374;28;20056;-69
2023/03/16 01:06:09;;;;;;;23.37;12.80;;;;;;;9.46;60.21;98946.81;4999122;28;20148;-68
2023/03/16 01:08:39;;;;;;;17.47;12.23;;;;;;;9.18;60.28;98959.56;5015886;28;20060;-68
2023/03/16 01:11:09;;;;;;;22.23;11.77;;;;;;;9.23;60.25;98951.97;5032128;28;20060;-69
2023/03/16 01:13:35;;;;;;;20.20;11.93;;;;;;;9.06;59.92;98945.00;5032208;28;20048;-68
2023/03/16 01:16:03;;;;;;;25.27;13.00;;;;;;;9.16;59.78;98945.69;4999057;28;20119;-69
2023/03/16 01:18:33;;;;;;;18.13;11.37;;;;;;;9.14;59.20;98945.03;5028585;28;20486;-68
2023/03/16 01:21:02;;;;;;;18.30;11.93;;;;;;;9.11;60.13;98944.50;5030724;28;20135;-68
2023/03/16 01:23:30;;;;;;;19.63;12.73;;;;;;;8.79;60.29;98953.28;5015829;28;20045;-69
2023/03/16 01:25:57;;;;;;;20.13;11.70;;;;;;;9.01;60.36;98955.25;4998883;28;20428;-70
2023/03/16 01:28:26;;;;;;;16.40;11.13;;;;;;;9.31;59.92;98970.50;5015302;28;20061;-68
2023/03/16 01:31:00;;;;;;;18.40;11.33;;;;;;;9.20;59.59;98957.59;5015672;28;20453;-69
2023/03/16 01:33:27;;;;;;;17.63;11.20;;;;;;;9.02;60.68;98951.63;5031908;28;20080;-69
2023/03/16 01:35:56;;;;;;;18.73;11.57;;;;;;;9.30;60.06;98958.25;5016874;28;20080;-68
2023/03/16 01:38:22;;;;;;;19.10;11.20;;;;;;;9.03;59.37;98953.28;5052867;28;20139;-68
2023/03/16 01:40:50;;;;;;;18.07;11.10;;;;;;;9.14;59.82;98968.84;5003636;28;20131;-69
2023/03/16 01:43:21;;;;;;;17.43;10.63;;;;;;;9.39;59.57;98962.56;5020273;28;20062;-69
2023/03/16 01:46:05;;;;;;;14.97;10.17;;;;;;;9.42;59.96;98958.75;5036304;28;20571;-70
2023/03/16 01:48:45;;;;;;;17.43;11.00;;;;;;;9.42;59.81;98956.94;5053714;28;20511;-68
2023/03/16 01:51:19;;;;;;;15.63;11.00;;;;;;;9.40;59.20;98953.63;5019910;28;20132;-68
2023/03/16 01:53:48;;;;;;;16.60;9.80;;;;;;;9.07;59.30;98946.66;5020234;28;20129;-69
2023/03/16 01:56:18;;;;;;;19.67;10.40;;;;;;;9.27;59.37;98947.97;5020115;28;20041;-69
2023/03/16 01:58:45;;;;;;;16.40;9.67;;;;;;;8.83;59.52;98943.16;5019544;28;20044;-69
2023/03/16 02:01:12;;;;;;;21.67;11.00;;;;;;;9.06;58.97;98945.00;5019315;28;20077;-70
2023/03/16 02:03:40;;;;;;;19.67;9.97;;;;;;;9.23;58.99;98953.78;5017132;28;20476;-69
2023/03/16 02:06:17;;;;;;;19.47;11.20;;;;;;;9.09;59.68;98947.31;4962604;28;20749;-67
2023/03/16 02:08:49;;;;;;;19.70;9.90;;;;;;;9.24;58.91;98952.81;4961962;28;20061;-68
2023/03/16 02:11:17;;;;;;;17.53;10.33;;;;;;;8.97;58.56;98959.25;4903397;29;20056;-68
2023/03/16 02:13:57;;;;;;;14.00;9.93;;;;;;;9.48;58.68;98944.81;4891591;29;20164;-68
2023/03/16 02:16:23;;;;;;;15.33;9.77;;;;;;;9.01;58.02;98949.16;4903983;29;20138;-69
2023/03/16 02:18:50;;;;;;;18.50;9.87;;;;;;;9.05;57.78;98947.81;4873034;29;20490;-69
2023/03/16 02:21:27;;;;;;;15.67;9.50;;;;;;;9.42;58.45;98948.97;4944622;29;20126;-67
2023/03/16 02:23:53;;;;;;;15.17;9.20;;;;;;;8.97;57.54;98947.81;4938782;29;20070;-68
2023/03/16 02:26:22;;;;;;;14.07;9.43;;;;;;;8.98;58.12;98955.59;4938361;29;20527;-68
2023/03/16 02:28:52;;;;;;;23.80;9.70;;;;;;;8.95;57.64;98937.38;4938569;29;20047;-68
2023/03/16 02:31:18;;;;;;;14.00;9.53;;;;;;;9.20;57.68;98936.41;4938118;29;20051;-68
2023/03/16 02:33:45;;;;;;;15.37;9.30;;;;;;;9.22;57.39;98942.38;4922732;29;20046;-69
2023/03/16 02:36:13;;;;;;;15.47;9.53;;;;;;;9.18;57.79;98929.63;4912002;28;20055;-69
2023/03/16 02:38:40;;;;;;;20.40;9.93;;;;;;;9.04;57.41;98939.03;4961243;28;20078;-72
2023/03/16 02:41:16;;;;;;;17.17;9.33;;;;;;;9.44;58.04;98924.97;4977925;28;20049;-69
2023/03/16 02:43:47;;;;;;;17.60;9.70;;;;;;;9.33;58.12;98917.34;5004823;28;20040;-68
2023/03/16 02:46:25;;;;;;;14.77;9.33;;;;;;;9.42;57.60;98917.19;4986817;28;20041;-69
2023/03/16 02:49:04;;;;;;;17.73;9.43;;;;;;;9.38;58.16;98918.50;5018821;28;20076;-68
2023/03/16 02:51:31;;;;;;;17.23;8.80;;;;;;;9.02;56.99;98924.31;5026377;28;20030;-69
2023/03/16 02:53:59;;;;;;;16.03;9.70;;;;;;;9.25;57.00;98918.19;5004827;28;20489;-68
2023/03/16 02:56:26;;;;;;;15.83;9.57;;;;;;;9.32;56.66;98927.13;5002987;28;20041;-69
2023/03/16 02:58:52;;;;;;;13.80;9.17;;;;;;;9.47;56.22;98928.09;4999674;28;20436;-73
2023/03/16 03:01:20;;;;;;;14.47;8.70;;;;;;;9.44;55.90;98932.91;4999925;28;20056;-76
2023/03/16 03:03:49;;;;;;;12.77;8.67;;;;;;;9.31;55.66;98940.53;4984426;28;20038;-71
2023/03/16 03:06:14;;;;;;;15.43;8.83;;;;;;;9.31;55.17;98943.19;5000586;28;20045;-71
2023/03/16 03:08:41;;;;;;;17.03;9.07;;;;;;;9.36;55.57;98939.06;4967904;28;20049;-73
2023/03/16 03:11:07;;;;;;;14.17;9.13;;;;;;;9.43;55.41;98931.25;4967918;28;20045;-69
2023/03/16 03:13:38;;;;;;;13.97;9.10;;;;;;;9.22;55.42;98933.59;4987233;28;20049;-69
2023/03/16 03:16:07;;;;;;;14.77;9.57;;;;;;;9.19;55.88;98931.28;4950578;28;20046;-68
2023/03/16 03:18:33;;;;;;;18.90;9.30;;;;;;;9.31;55.63;98928.13;4930765;28;20060;-67
2023/03/16 03:20:59;;;;;;;15.37;8.87;;;;;;;9.33;55.30;98927.97;4929373;28;20051;-68
2023/03/16 03:23:25;;;;;;;14.17;8.53;;;;;;;9.54;54.71;98909.69;4945446;28;20513;-68
2023/03/16 03:25:51;;;;;;;13.60;8.67;;;;;;;9.47;54.76;98906.88;4914858;28;20050;-70
2023/03/16 03:28:17;;;;;;;14.50;9.03;;;;;;;9.38;54.98;98918.50;4939628;28;20526;-69
2023/03/16 03:30:44;;;;;;;14.15;9.07;;;;;;;9.36;55.18;98911.72;4937534;29;20158;-70
2023/03/16 03:33:10;;;;;;;12.47;8.13;;;;;;;9.29;55.27;98923.97;4921419;29;20082;-70
2023/03/16 03:35:36;;;;;;;16.13;8.83;;;;;;;9.12;55.54;98923.16;4937467;29;20051;-69
2023/03/16 03:38:02;;;;;;;18.17;9.03;;;;;;;9.16;56.21;98905.13;4937315;29;20435;-73
2023/03/16 03:40:28;;;;;;;15.67;8.50;;;;;;;9.03;56.32;98918.84;4933353;28;20169;-68
2023/03/16 03:43:01;;;;;;;13.50;8.57;;;;;;;8.90;56.79;98923.84;4926203;29;20330;-67
2023/03/16 03:45:28;;;;;;;21.03;9.13;;;;;;;8.80;57.17;98917.84;4936959;29;20054;-65
2023/03/16 03:47:54;;;;;;;16.10;8.57;;;;;;;8.73;57.49;98924.81;4961543;28;20119;-67
2023/03/16 03:50:22;;;;;;;14.90;8.73;;;;;;;8.84;57.35;98913.06;5029691;28;20076;-68
2023/03/16 03:53:20;;;;;;;13.87;8.67;;;;;;;8.90;57.68;98912.41;4960775;28;20049;-65
2023/03/16 03:56:06;;;;;;;16.23;8.10;;;;;;;8.86;57.10;98922.50;4959222;28;20522;-67
2023/03/16 03:58:32;;;;;;;13.73;8.57;;;;;;;8.81;57.05;98939.88;4940853;28;20101;-67
2023/03/16 04:00:58;;;;;;;14.80;8.57;;;;;;;8.59;58.22;98928.91;4943090;28;20074;-65
2023/03/16 04:03:24;;;;;;;22.77;8.97;;;;;;;8.54;58.54;98927.75;4977011;28;20052;-65
2023/03/16 04:05:50;;;;;;;14.27;8.63;;;;;;;8.46;58.73;98909.19;5035126;28;20061;-67
2023/03/16 04:08:16;;;;;;;13.37;8.90;;;;;;;8.46;59.06;98919.78;5034998;28;20515;-69
2023/03/16 04:10:48;;;;;;;13.13;8.90;;;;;;;8.64;58.80;98917.00;5018965;28;20139;-71
2023/03/16 04:13:22;;;;;;;18.57;10.07;;;;;;;8.60;58.68;98892.69;5021026;28;20187;-67
2023/03/16 04:15:48;;;;;;;13.23;9.20;;;;;;;8.74;57.83;98902.63;5018933;28;20049;-65
2023/03/16 04:18:21;;;;;;;14.90;8.83;;;;;;;8.72;58.02;98914.38;5018569;28;20134;-66
2023/03/16 04:20:47;;;;;;;14.90;8.80;;;;;;;8.76;58.08;98916.53;4985992;28;20060;-65
2023/03/16 04:23:17;;;;;;;21.00;10.10;;;;;;;8.64;58.26;98899.31;5018923;28;20032;-65
2023/03/16 04:25:45;;;;;;;16.47;9.07;;;;;;;9.01;58.30;98899.66;5031247;28;20142;-66
2023/03/16 04:28:16;;;;;;;16.73;8.80;;;;;;;8.83;57.97;98884.91;5034305;28;20049;-72
2023/03/16 04:30:44;;;;;;;17.40;9.40;;;;;;;8.85;59.13;98899.66;5019203;28;20048;-66
2023/03/16 04:33:21;;;;;;;17.37;8.70;;;;;;;8.76;58.97;98913.06;5034512;28;20059;-67
2023/03/16 04:35:48;;;;;;;14.10;8.47;;;;;;;8.86;58.39;98917.19;5034946;28;20064;-66
2023/03/16 04:38:15;;;;;;;12.80;8.63;;;;;;;8.70;58.67;98926.94;5018693;28;20049;-66
2023/03/16 04:40:50;;;;;;;16.90;9.53;;;;;;;8.44;59.18;98929.72;5002909;28;20139;-66
2023/03/16 04:43:21;;;;;;;14.87;9.20;;;;;;;8.54;59.78;98935.69;4986911;28;20037;-65
2023/03/16 04:45:50;;;;;;;15.97;8.97;;;;;;;8.61;59.96;98949.91;5034586;28;20432;-67
2023/03/16 04:48:16;;;;;;;14.53;8.50;;;;;;;8.62;60.07;98941.00;5034433;28;20048;-67
2023/03/16 04:50:42;;;;;;;13.20;8.33;;;;;;;8.35;60.83;98935.94;5032870;28;20056;-67
2023/03/16 04:53:08;;;;;;;11.43;8.33;;;;;;;8.36;60.59;98948.22;5001230;28;20480;-66
2023/03/16 04:55:35;;;;;;;15.43;8.53;;;;;;;8.38;61.46;98933.81;4984723;28;20343;-67
2023/03/16 04:58:01;;;;;;;14.03;8.20;;;;;;;8.42;61.48;98951.06;5001772;28;20053;-66
2023/03/16 05:00:32;;;;;;;14.48;8.63;;;;;;;8.38;61.92;98930.34;5002134;28;20504;-65
2023/03/16 05:03:05;;;;;;;16.07;8.43;;;;;;;8.46;61.83;98941.78;5002699;28;20163;-66
2023/03/16 05:05:32;;;;;;;13.53;9.20;;;;;;;8.40;61.21;98946.88;5017855;28;20052;-66
2023/03/16 05:07:57;;;;;;;15.83;9.57;;;;;;;8.37;62.24;98944.56;5001647;28;20041;-65
2023/03/16 05:10:26;;;;;;;16.53;9.73;;;;;;;8.35;62.28;98959.75;5002096;28;20044;-65
2023/03/16 05:12:52;;;;;;;16.27;9.47;;;;;;;8.50;62.52;98956.34;5018062;28;20485;-65
2023/03/16 05:15:18;;;;;;;16.07;9.03;;;;;;;8.39;62.36;98953.97;5001802;28;20052;-69
2023/03/16 05:17:57;;;;;;;15.00;9.27;;;;;;;8.53;62.47;98960.50;5017782;28;20080;-66
2023/03/16 05:20:23;;;;;;;17.77;9.17;;;;;;;8.75;62.01;98965.16;5034676;28;20045;-65
2023/03/16 05:22:53;;;;;;;18.17;9.33;;;;;;;8.77;61.40;98954.41;5018457;28;20045;-66
2023/03/16 05:25:32;;;;;;;16.03;8.83;;;;;;;8.66;61.06;98952.09;5003151;28;20045;-66
2023/03/16 05:28:02;;;;;;;16.67;9.07;;;;;;;8.95;61.81;98950.63;5002099;28;20538;-65
2023/03/16 05:30:35;;;;;;;16.17;8.90;;;;;;;8.90;61.23;98955.59;5002387;28;20073;-65
2023/03/16 05:33:04;;;;;;;18.05;8.50;;;;;;;8.97;61.87;98946.00;5019152;28;20048;-66
2023/03/16 05:35:31;;;;;;;15.63;8.93;;;;;;;9.16;61.76;98937.75;5033236;28;20044;-66
2023/03/16 05:38:02;;;;;;;18.07;9.13;;;;;;;9.04;60.94;98939.03;5002575;28;20084;-66
2023/03/16 05:40:30;;;;;;;15.97;9.17;;;;;;;9.24;61.08;98943.00;5004619;28;20053;-66
2023/03/16 05:43:09;;;;;;;14.90;9.30;;;;;;;9.08;60.68;98942.19;5007192;28;20068;-66
2023/03/16 05:45:41;;;;;;;15.07;8.70;;;;;;;8.97;60.51;98950.47;5021539;28;20044;-66
2023/03/16 05:48:11;;;;;;;15.27;8.87;;;;;;;9.01;60.74;98946.50;5006167;28;20144;-66
2023/03/16 05:50:43;;;;;;;21.33;9.77;;;;;;;9.04;61.13;98946.97;5007403;28;20341;-65
2023/03/16 05:53:10;;;;;;;14.83;9.47;;;;;;;9.16;60.66;98945.69;5021694;28;20131;-66
2023/03/16 05:55:37;;;;;;;25.37;9.90;;;;;;;9.20;60.96;98952.31;5021498;28;20040;-65
2023/03/16 05:58:06;;;;;;;19.33;10.00;;;;;;;9.26;60.73;98964.88;5021430;28;20051;-67
2023/03/16 06:00:36;;;;;;;19.40;9.53;;;;;;;9.30;60.20;98966.19;5021836;28;20045;-66
2023/03/16 06:03:14;;;;;;;14.53;9.43;;;;;;;9.21;59.85;98975.13;5043089;28;20473;-66
2023/03/16 06:05:42;;;;;;;16.30;9.37;;;;;;;9.12;59.98;98970.03;5057513;28;20091;-66
2023/03/16 06:08:11;;;;;;;13.20;8.80;;;;;;;9.46;60.91;98962.72;5058069;28;20571;-65
2023/03/16 06:10:40;;;;;;;17.80;9.50;;;;;;;9.17;60.69;98968.53;5040871;28;20068;-66
2023/03/16 06:13:06;;;;;;;17.53;9.73;;;;;;;9.11;60.64;98974.50;5008032;28;20475;-66
2023/03/16 06:15:32;;;;;;;20.40;9.37;;;;;;;9.20;60.46;98976.16;5008271;28;20400;-66
2023/03/16 06:18:01;;;;;;;12.57;8.83;;;;;;;9.16;60.34;98974.84;5024955;28;20464;-66
2023/03/16 06:20:27;;;;;;;17.63;8.90;;;;;;;9.18;59.86;98985.25;5024324;28;20082;-66
2023/03/16 06:22:54;;;;;;;18.23;9.73;;;;;;;8.97;61.02;98976.94;5040741;28;20071;-66
2023/03/16 06:25:20;;;;;;;16.23;9.20;;;;;;;8.94;61.04;98967.53;5040547;28;20095;-68
2023/03/16 06:27:48;;;;;;;18.73;9.63;;;;;;;9.08;60.90;98972.16;5024506;28;20384;-66
2023/03/16 06:30:16;;;;;;;15.97;9.87;;;;;;;9.26;61.05;98978.13;5025260;28;20067;-65
2023/03/16 06:32:44;;;;;;;16.03;8.87;;;;;;;9.24;60.14;98988.06;5040879;28;20140;-66
2023/03/16 06:35:11;;;;;;;20.70;10.10;;;;;;;9.22;60.26;98992.72;5040569;28;20578;-65
2023/03/16 06:37:41;;;;;;;14.25;9.43;;;;;;;8.96;60.97;98994.69;5025356;28;20055;-66
2023/03/16 06:40:21;;;;;;;19.60;10.90;;;;;;;8.88;60.90;98996.47;5028148;28;20056;-68
2023/03/16 06:42:47;;;;;;;22.13;11.93;;;;;;;8.84;61.18;99000.44;5057246;28;20044;-66
2023/03/16 06:45:16;;;;;;;25.87;12.67;;;;;;;8.81;61.54;98983.03;5040931;28;20054;-65
2023/03/16 06:47:45;;;;;;;29.30;13.47;;;;;;;9.27;62.28;98986.91;5024155;28;20040;-65
2023/03/16 06:50:11;;;;;;;26.20;13.27;;;;;;;8.98;61.68;98971.47;5040131;28;20584;-66
2023/03/16 06:52:40;;;;;;;31.13;14.57;;;;;;;9.10;61.78;98978.09;5007411;28;20041;-66
2023/03/16 06:55:07;;;;;;;26.30;12.23;;;;;;;9.13;61.08;98988.41;5040181;28;20088;-65
2023/03/16 06:57:35;;;;;;;30.87;13.70;;;;;;;9.08;60.90;98990.72;5040254;28;20484;-66
2023/03/16 07:00:03;;;;;;;28.03;13.47;;;;;;;9.37;61.59;98980.44;5007449;28;20053;-66
2023/03/16 07:02:31;;;;;;;23.50;12.70;;;;;;;9.33;60.31;98967.69;5040610;28;20101;-65
2023/03/16 07:04:57;;;;;;;20.27;11.63;;;;;;;9.40;59.87;98971.31;5040246;28;20103;-66
2023/03/16 07:07:23;;;;;;;22.08;12.25;;;;;;;9.64;60.88;98972.13;5023467;28;20052;-66
2023/03/16 07:09:49;;;;;;;17.30;11.00;;;;;;;9.71;59.44;98970.47;5007301;28;20045;-66
2023/03/16 07:12:15;;;;;;;23.17;11.02;;;;;;;9.96;59.36;98976.56;5023516;28;20059;-65
2023/03/16 07:14:41;;;;;;;23.92;12.73;;;;;;;9.85;58.96;98975.09;5023465;28;20036;-67
2023/03/16 07:17:09;;;;;;;18.67;11.43;;;;;;;9.97;59.07;98975.53;5023915;28;20476;-66
2023/03/16 07:19:35;;;;;;;18.17;11.95;;;;;;;10.15;59.13;98984.97;5039773;28;20060;-66
2023/03/16 07:22:02;;;;;;;19.00;10.88;;;;;;;10.02;57.50;98979.31;5023302;28;20048;-66
2023/03/16 07:24:31;;;;;;;18.10;10.82;;;;;;;10.00;57.39;98978.69;5024128;28;20052;-66
2023/03/16 07:26:57;;;;;;;16.65;11.02;;;;;;;10.20;58.57;98977.34;5023214;28;20529;-66
2023/03/16 07:29:28;;;;;;;22.30;11.48;;;;;;;10.16;57.38;98988.47;5024251;28;20044;-66
2023/03/16 07:31:55;;;;;;;17.05;10.65;;;;;;;10.10;57.01;98983.84;5023725;28;20040;-66
2023/03/16 07:34:26;;;;;;;;;;;;;;;10.82;56.72;98986.16;5024254;28;20501;-66
2023/03/16 07:36:55;;;;;;;16.13;10.40;;;;;;;10.22;56.83;98979.81;5023727;28;19932;-66
2023/03/16 07:39:24;;;;;;;18.60;11.05;;;;;;;10.36;57.67;98981.75;5023353;28;20044;-74
2023/03/16 07:42:03;;;;;;;17.75;10.75;;;;;;;10.39;56.43;98985.88;5024385;28;20052;-71
2023/03/16 07:44:53;;;;;;;15.75;10.82;;;;;;;10.56;56.40;98984.81;5029884;28;20460;-66
2023/03/16 07:47:19;;;;;;;17.30;11.32;;;;;;;10.69;57.02;98974.44;5039265;28;20123;-66
2023/03/16 07:49:45;;;;;;;16.33;10.38;;;;;;;10.62;56.00;98976.13;5038949;28;20055;-65
2023/03/16 07:52:14;;;;;;;17.02;9.82;;;;;;;10.45;55.26;98977.22;5055808;28;20044;-66
2023/03/16 07:54:41;;;;;;;16.98;10.00;;;;;;;10.43;55.47;98968.59;5023191;28;20036;-66
2023/03/16 07:57:08;;;;;;;18.83;11.07;;;;;;;10.78;56.88;98965.44;5038899;28;20090;-65
2023/03/16 07:59:39;;;;;;;15.80;10.02;;;;;;;10.97;56.22;98967.63;5040255;28;20089;-66
2023/03/16 08:02:06;;;;;;;16.83;9.88;;;;;;;11.07;55.10;98973.53;5022561;28;20060;-66
2023/03/16 08:04:32;;;;;;;14.45;8.95;;;;;;;11.04;54.40;98973.91;5006052;28;20051;-66
2023/03/16 08:07:00;;;;;;;17.05;9.70;;;;;;;10.90;54.95;98966.69;5006315;28;20037;-66
2023/03/16 08:09:36;;;;;;;15.18;9.88;;;;;;;11.14;55.36;98974.47;5055430;28;20423;-66
2023/03/16 08:12:08;;;;;;;14.15;9.93;;;;;;;11.40;53.72;98974.91;5023610;28;20079;-66
2023/03/16 08:14:35;;;;;;;18.42;9.95;;;;;;;11.34;54.39;98978.28;5055490;28;20071;-66
2023/03/16 08:17:13;;;;;;;18.02;10.43;;;;;;;11.64;53.61;98985.38;5023498;28;20044;-66
2023/03/16 08:19:39;;;;;;;14.45;9.50;;;;;;;11.52;54.28;98978.81;5038316;28;20376;-70
2023/03/16 08:22:08;;;;;;;13.43;10.07;;;;;;;11.62;54.32;98979.38;5006429;28;20139;-66
2023/03/16 08:24:39;;;;;;;14.52;8.95;;;;;;;11.67;52.38;98982.34;5023588;28;20040;-67
2023/03/16 08:27:07;;;;;;;13.93;8.98;;;;;;;11.83;53.46;98982.19;5022558;28;20503;-66
2023/03/16 08:29:36;;;;;;;15.98;10.48;;;;;;;11.81;53.80;98992.19;5006449;28;20040;-66
2023/03/16 08:32:05;;;;;;;15.07;9.77;;;;;;;11.72;51.84;98985.28;5054448;28;20050;-65
2023/03/16 08:34:38;;;;;;;13.10;9.07;;;;;;;11.45;51.15;98993.84;5040133;28;20044;-67
2023/03/16 08:37:05;;;;;;;15.70;10.82;;;;;;;11.25;51.69;98997.97;5005832;28;20111;-66
2023/03/16 08:39:32;;;;;;;14.55;10.45;;;;;;;11.25;52.44;98996.16;5038249;28;20044;-66
2023/03/16 08:42:00;;;;;;;20.52;11.63;;;;;;;11.21;52.29;98991.38;5054655;28;20056;-66
2023/03/16 08:44:35;;;;;;;18.75;11.23;;;;;;;11.33;53.95;98995.25;5023600;28;20048;-66
2023/03/16 08:47:01;;;;;;;18.65;11.55;;;;;;;11.58;53.23;98996.69;5055189;28;20106;-67
2023/03/16 08:49:28;;;;;;;16.67;10.75;;;;;;;11.80;52.41;98988.72;5021894;28;20146;-65
2023/03/16 08:52:04;;;;;;;16.50;10.88;;;;;;;11.84;52.79;98990.00;5039045;28;20074;-66
2023/03/16 08:54:31;;;;;;;17.35;10.93;;;;;;;11.88;52.71;98991.28;5037936;28;20114;-66
2023/03/16 08:56:57;;;;;;;16.48;10.48;;;;;;;11.92;52.36;98993.59;5038299;28;20135;-66
2023/03/16 08:59:23;;;;;;;16.52;9.90;;;;;;;11.84;51.47;98997.13;5054409;28;20048;-66
2023/03/16 09:01:49;;;;;;;17.60;10.07;;;;;;;11.84;51.81;99000.63;5054426;28;20056;-65
2023/03/16 09:04:15;;;;;;;12.43;9.50;;;;;;;11.92;51.92;99002.38;5021519;28;20051;-65
2023/03/16 09:06:41;;;;;;;13.93;9.73;;;;;;;11.96;51.35;99002.88;5021471;28;20121;-65
2023/03/16 09:09:08;;;;;;;15.32;9.63;;;;;;;12.00;51.16;98998.81;5037762;28;20048;-66
2023/03/16 09:11:34;;;;;;;15.52;9.30;;;;;;;12.06;51.40;98993.59;5038085;28;20105;-66
2023/03/16 09:14:01;;;;;;;13.07;9.10;;;;;;;12.19;50.75;99000.94;5053694;28;20102;-67
2023/03/16 09:16:27;;;;;;;14.20;9.95;;;;;;;12.14;49.51;99000.66;5021609;28;20044;-65
2023/03/16 09:18:54;;;;;;;15.55;9.48;;;;;;;12.18;50.77;99008.09;5054286;28;20110;-66
2023/03/16 09:21:20;;;;;;;15.52;9.98;;;;;;;12.03;48.85;98998.44;5037611;28;20438;-65
2023/03/16 09:23:46;;;;;;;19.17;9.48;;;;;;;12.02;49.72;99004.78;5021292;28;20056;-66
2023/03/16 09:26:12;;;;;;;20.48;11.32;;;;;;;12.17;50.70;98989.66;5054027;28;20178;-66
2023/03/16 09:28:40;;;;;;;15.73;9.88;;;;;;;12.46;50.55;98994.94;5004972;28;20067;-66
2023/03/16 09:31:07;;;;;;;18.60;12.45;;;;;;;12.68;50.22;99000.19;5071823;28;20110;-66
2023/03/16 09:33:34;;;;;;;20.27;14.07;;;;;;;12.88;49.23;98995.91;5037229;28;20059;-66
2023/03/16 09:36:00;;;;;;;19.75;11.45;;;;;;;12.88;48.65;98998.56;5021281;28;20044;-65
2023/03/16 09:38:27;;;;;;;18.98;10.20;;;;;;;12.90;48.26;99001.84;5037904;28;20511;-66
2023/03/16 09:41:08;;;;;;;15.20;10.70;;;;;;;13.38;48.52;98998.50;5037537;28;20041;-66
2023/03/16 09:43:46;;;;;;;17.33;10.85;;;;;;;13.33;48.06;98998.22;5054123;28;20105;-66
2023/03/16 09:46:15;;;;;;;16.55;11.23;;;;;;;13.29;48.41;99002.31;5071634;28;20428;-66
2023/03/16 09:48:41;;;;;;;22.13;12.60;;;;;;;12.94;47.87;98987.16;5071595;28;20465;-66
2023/03/16 09:51:16;;;;;;;16.73;11.98;;;;;;;13.33;48.19;98992.91;5037488;28;20055;-66
2023/03/16 09:53:42;;;;;;;20.05;11.18;;;;;;;12.95;47.36;98982.63;5054199;28;20059;-65
2023/03/16 09:56:38;;;;;;;14.77;10.88;;;;;;;13.46;47.10;98982.38;5004507;28;20044;-66
2023/03/16 09:59:12;;;;;;;15.43;10.93;;;;;;;13.44;47.73;98981.72;5019913;28;20067;-66
2023/03/16 10:01:51;;;;;;;14.68;10.85;;;;;;;13.18;47.45;98991.31;5053936;28;20139;-65
2023/03/16 10:04:40;;;;;;;16.60;11.07;;;;;;;13.73;47.07;98996.72;5054120;28;20037;-65
2023/03/16 10:07:28;;;;;;;18.95;12.57;;;;;;;13.71;47.01;98992.63;5020940;28;20060;-66
2023/03/16 10:10:14;;;;;;;19.45;12.98;;;;;;;13.70;46.94;98996.31;5037420;28;20045;-66
2023/03/16 10:12:46;;;;;;;17.98;12.38;;;;;;;13.64;47.19;98994.41;5004454;28;20040;-66
2023/03/16 10:15:23;;;;;;;20.60;12.85;;;;;;;13.82;46.73;98994.75;5037431;28;20048;-66
2023/03/16 10:18:00;;;;;;;21.80;13.18;;;;;;;13.80;46.92;98996.78;5020719;28;20139;-65
2023/03/16 10:20:34;;;;;;;16.75;11.82;;;;;;;13.62;46.69;98994.59;5036571;28;20067;-67
2023/03/16 10:23:15;;;;;;;19.15;12.25;;;;;;;13.85;46.60;98999.72;5037551;28;20059;-66
2023/03/16 10:25:53;;;;;;;19.42;11.48;;;;;;;14.00;46.40;98997.75;5036822;28;20064;-66
2023/03/16 10:28:27;;;;;;;16.75;11.18;;;;;;;13.94;46.24;98999.38;5057288;28;20044;-66
2023/03/16 10:30:55;;;;;;;17.40;10.90;;;;;;;13.79;46.19;98997.81;5024174;28;20547;-66
2023/03/16 10:33:27;;;;;;;17.60;10.32;;;;;;;13.92;46.22;98992.56;5023330;28;20396;-66
2023/03/16 10:36:04;;;;;;;15.45;10.30;;;;;;;13.93;45.99;98995.03;5023895;28;20040;-68
2023/03/16 10:38:39;;;;;;;16.35;10.32;;;;;;;13.99;46.24;99006.78;5040655;28;20037;-66
2023/03/16 10:41:29;;;;;;;13.45;9.95;;;;;;;14.02;45.80;99012.56;5058369;28;20045;-71
2023/03/16 10:43:56;;;;;;;16.73;10.48;;;;;;;13.71;45.71;98998.78;5040048;28;20048;-66
2023/03/16 10:46:24;;;;;;;16.10;10.93;;;;;;;13.72;46.00;99004.94;5056817;28;20055;-66
2023/03/16 10:48:53;;;;;;;13.93;10.10;;;;;;;13.68;45.85;98996.50;5015849;28;20460;-67
2023/03/16 10:51:24;;;;;;;13.30;10.20;;;;;;;13.73;45.95;99002.06;5015674;28;20045;-66
2023/03/16 10:53:51;;;;;;;17.00;10.15;;;;;;;13.61;45.80;99002.81;5015473;28;20049;-67
2023/03/16 10:56:24;;;;;;;14.38;10.13;;;;;;;13.80;46.02;99012.81;5015685;28;20060;-67
2023/03/16 10:58:50;;;;;;;15.30;10.25;;;;;;;13.36;45.89;98997.84;5015685;28;20068;-66
2023/03/16 11:01:25;;;;;;;13.35;9.95;;;;;;;13.65;46.00;98996.88;4982387;28;20042;-66
2023/03/16 11:03:54;;;;;;;13.68;9.52;;;;;;;13.68;46.15;98991.16;5015800;28;20077;-66
2023/03/16 11:06:23;;;;;;;14.43;10.25;;;;;;;13.69;46.05;98999.97;4999044;28;20492;-65
2023/03/16 11:08:51;;;;;;;16.67;10.02;;;;;;;13.50;46.24;99006.78;4999383;28;20049;-65
2023/03/16 11:11:24;;;;;;;14.88;10.40;;;;;;;13.42;46.64;98988.28;5015497;28;20124;-65
2023/03/16 11:13:56;;;;;;;14.10;9.43;;;;;;;13.39;46.72;99010.81;4999630;28;20063;-65
2023/03/16 11:16:36;;;;;;;17.98;11.38;;;;;;;13.28;47.11;99005.97;5015519;28;20037;-65
2023/03/16 11:19:17;;;;;;;19.40;10.90;;;;;;;13.47;47.30;99002.69;5023792;28;20052;-67
2023/03/16 11:21:49;;;;;;;25.15;12.45;;;;;;;13.30;47.21;99008.44;5039501;28;20161;-65
2023/03/16 11:24:22;;;;;;;24.10;12.48;;;;;;;13.27;47.66;99011.50;5039490;28;20131;-67
2023/03/16 11:26:54;;;;;;;28.77;13.73;;;;;;;13.23;48.15;99010.25;5023438;28;20041;-66
2023/03/16 11:29:33;;;;;;;40.55;15.98;;;;;;;13.26;48.14;99012.53;5006909;28;20056;-65
2023/03/16 11:32:13;;;;;;;76.53;23.98;;;;;;;13.14;48.19;99014.88;5039467;28;20102;-66
2023/03/16 11:34:42;;;;;;;52.55;18.70;;;;;;;12.72;48.37;99017.44;5056105;28;20106;-66
2023/03/16 11:37:27;;;;;;;32.47;14.70;;;;;;;12.99;48.50;99024.72;5039116;28;20476;-66
2023/03/16 11:40:22;;;;;;;27.20;12.40;;;;;;;13.03;48.90;99020.69;5022651;28;20048;-66